Time;durP1;ratioP1;P1;durP2;ratioP2;P2;SDS_P1;SDS_P2;PMS_P1;PMS_P2;Temp;Humidity;BMP_temperature;BMP_pressure;BME280_temperature;BME280_humidity;BME280_pressure;Samples;Min_cycle;Max_cycle;Signal;HPM_P1;HPM_P2
2022/02/03 00:01:51;;;;;;;7.50;1.73;;;7.30;57.90;;;;;;5084369;28;20043;-63
2022/02/03 00:04:19;;;;;;;3.65;1.45;;;7.30;58.10;;;;;;5083866;28;20036;-63
2022/02/03 00:06:53;;;;;;;7.95;1.83;;;7.40;57.90;;;;;;5083577;28;20025;-63
2022/02/03 00:23:33;;;;;;;5.88;1.67;;;7.50;56.90;;;;;;5092976;28;20561;-65
2022/02/03 00:25:41;;;;;;;6.57;1.55;;;7.60;56.70;;;;;;5103762;28;20127;-63
2022/02/03 00:28:16;;;;;;;5.88;1.35;;;7.60;56.60;;;;;;5084222;28;20428;-64
2022/02/03 00:33:24;;;;;;;5.00;1.60;;;7.70;56.60;;;;;;5101807;28;20457;-65
2022/02/03 00:49:29;;;;;;;4.75;1.40;;;7.70;56.60;;;;;;5100721;28;20430;-63
2022/02/03 00:51:59;;;;;;;7.97;1.92;;;7.70;56.70;;;;;;5083417;28;20034;-63
2022/02/03 00:54:25;;;;;;;7.50;2.30;;;7.70;56.60;;;;;;5104349;28;20023;-63
2022/02/03 00:57:14;;;;;;;7.15;1.65;;;7.60;56.60;;;;;;5096047;28;20093;-63
2022/02/03 01:00:18;;;;;;;7.43;1.70;;;7.60;56.80;;;;;;5104972;28;20503;-61
2022/02/03 01:02:45;;;;;;;9.60;1.90;;;7.60;56.70;;;;;;5087349;28;20040;-63
2022/02/03 01:05:13;;;;;;;5.82;1.67;;;7.60;56.70;;;;;;5084260;28;20503;-63
2022/02/03 01:07:43;;;;;;;7.32;1.90;;;7.60;56.50;;;;;;5083411;28;20077;-64
2022/02/03 01:10:32;;;;;;;8.32;2.38;;;7.60;56.80;;;;;;5105277;28;20023;-63
2022/02/03 01:13:11;;;;;;;7.95;2.22;;;7.60;56.90;;;;;;5091934;28;20495;-64
2022/02/03 01:15:51;;;;;;;6.20;1.40;;;7.60;56.80;;;;;;5095944;28;20294;-63
2022/02/03 01:19:12;;;;;;;7.53;2.00;;;7.60;56.70;;;;;;5103161;28;20136;-62
2022/02/03 01:37:49;;;;;;;6.35;2.10;;;7.60;56.00;;;;;;5107965;28;20039;-62
2022/02/03 01:53:40;;;;;;;5.63;1.63;;;7.60;55.80;;;;;;5109520;28;20414;-63
2022/02/03 01:56:13;;;;;;;8.90;1.77;;;7.60;55.10;;;;;;5110852;28;20031;-63
2022/02/03 01:58:45;;;;;;;6.80;2.20;;;7.60;55.20;;;;;;5099128;28;20059;-63
2022/02/03 02:01:25;;;;;;;5.78;1.77;;;7.60;55.30;;;;;;5088466;28;20038;-65
2022/02/03 02:04:11;;;;;;;9.30;2.22;;;7.70;55.10;;;;;;5104350;28;20047;-62
2022/02/03 02:06:39;;;;;;;8.18;2.00;;;7.70;54.90;;;;;;5109407;28;20033;-62
2022/02/03 02:09:14;;;;;;;7.60;1.80;;;7.70;54.60;;;;;;5111013;28;20016;-63
2022/02/03 02:12:08;;;;;;;5.38;1.70;;;7.70;54.70;;;;;;5103255;28;20460;-63
2022/02/03 02:43:03;;;;;;;8.23;2.05;;;7.70;54.00;;;;;;5103006;28;20039;-63
2022/02/03 02:45:34;;;;;;;10.55;1.70;;;7.70;54.10;;;;;;5105396;28;20063;-66
2022/02/03 02:48:09;;;;;;;6.43;1.90;;;7.60;54.60;;;;;;5089777;28;20037;-63
2022/02/03 02:50:50;;;;;;;7.93;1.90;;;7.70;54.00;;;;;;5109372;28;20080;-62
2022/02/03 02:54:21;;;;;;;7.25;2.20;;;7.70;53.90;;;;;;5108811;28;20040;-62
2022/02/03 03:33:48;;;;;;;6.30;1.60;;;7.80;52.60;;;;;;5009606;28;20077;-64
2022/02/03 03:39:03;;;;;;;9.13;1.60;;;7.70;52.50;;;;;;5112135;28;20031;-64
2022/02/03 03:41:33;;;;;;;6.97;1.73;;;7.70;52.30;;;;;;5106800;28;20024;-64
2022/02/03 03:44:03;;;;;;;7.88;1.60;;;7.70;52.30;;;;;;5110112;28;20548;-63
2022/02/03 03:46:34;;;;;;;10.40;2.05;;;7.70;52.10;;;;;;5113106;28;20023;-64
2022/02/03 03:49:07;;;;;;;10.18;1.98;;;7.70;52.00;;;;;;5110637;28;20395;-64
2022/02/03 03:51:47;;;;;;;7.25;1.67;;;7.70;52.10;;;;;;5103362;28;20027;-63
2022/02/03 03:55:00;;;;;;;10.07;2.30;;;7.70;51.30;;;;;;5101018;28;20543;-62
2022/02/03 03:57:34;;;;;;;8.88;1.80;;;7.60;51.50;;;;;;5103752;28;20115;-62
2022/02/03 04:29:05;;;;;;;5.45;1.67;;;7.40;51.20;;;;;;5113365;28;20046;-64
2022/02/03 04:41:47;;;;;;;15.98;2.30;;;7.30;52.60;;;;;;5107889;28;20468;-63
2022/02/03 04:57:03;;;;;;;8.65;1.92;;;6.90;53.40;;;;;;5105353;28;20074;-63
2022/02/03 05:02:50;;;;;;;11.43;1.92;;;6.90;54.00;;;;;;5105910;28;20067;-62
2022/02/03 05:08:43;;;;;;;10.35;2.80;;;6.80;54.30;;;;;;5108597;28;20426;-62
2022/02/03 05:11:57;;;;;;;9.18;2.05;;;6.80;54.50;;;;;;5086357;28;20027;-63
2022/02/03 05:15:16;;;;;;;12.50;2.13;;;6.70;54.80;;;;;;5110865;28;20515;-64
2022/02/03 05:24:13;;;;;;;12.07;3.17;;;6.70;55.20;;;;;;5107854;28;20047;-63
2022/02/03 05:32:02;;;;;;;14.40;2.08;;;6.70;55.30;;;;;;5109400;28;20040;-63
2022/02/03 05:33:20;;;;;;;13.98;2.38;;;6.60;56.10;;;;;;5102375;28;20388;-63
2022/02/03 06:07:20;;;;;;;18.33;2.72;;;6.50;58.20;;;;;;5106269;28;20046;-63
2022/02/03 06:12:54;;;;;;;10.20;2.38;;;6.50;58.50;;;;;;5105257;28;20027;-64
2022/02/03 06:15:17;;;;;;;13.68;2.42;;;6.50;58.60;;;;;;5098436;28;20122;-63
2022/02/03 06:21:20;;;;;;;11.25;2.50;;;6.40;59.10;;;;;;5087119;28;20076;-64
2022/02/03 06:23:46;;;;;;;14.60;2.67;;;6.40;59.00;;;;;;5106817;28;20059;-64
2022/02/03 06:29:03;;;;;;;20.42;3.72;;;6.40;59.20;;;;;;5101118;28;20396;-63
2022/02/03 06:31:28;;;;;;;21.67;3.90;;;6.40;59.30;;;;;;5106105;28;20058;-66
2022/02/03 06:33:55;;;;;;;14.32;2.75;;;6.50;59.50;;;;;;5104573;28;20055;-63
2022/02/03 06:36:21;;;;;;;18.40;2.90;;;6.50;59.40;;;;;;5109849;28;20047;-62
2022/02/03 06:38:47;;;;;;;22.67;3.90;;;6.50;59.20;;;;;;5107612;28;20469;-63
2022/02/03 06:41:12;;;;;;;11.98;2.75;;;6.50;59.30;;;;;;5107290;28;20035;-63
2022/02/03 06:43:38;;;;;;;15.57;3.10;;;6.50;59.40;;;;;;5102425;28;20480;-62
2022/02/03 06:46:08;;;;;;;23.02;3.28;;;6.50;59.60;;;;;;5103294;28;20028;-62
2022/02/03 06:48:36;;;;;;;16.90;3.13;;;6.50;59.60;;;;;;5109770;28;20038;-61
2022/02/03 06:51:12;;;;;;;13.82;2.53;;;6.50;59.70;;;;;;5108990;28;20024;-61
2022/02/03 06:53:41;;;;;;;18.60;3.33;;;6.50;59.60;;;;;;5109520;28;20249;-63
2022/02/03 06:56:13;;;;;;;15.93;3.35;;;6.60;59.50;;;;;;5097270;28;20038;-61
2022/02/03 06:58:51;;;;;;;21.73;2.83;;;6.60;59.20;;;;;;5110895;28;20034;-61
2022/02/03 07:01:22;;;;;;;14.27;2.75;;;6.70;59.20;;;;;;5114638;28;20119;-61
2022/02/03 07:03:55;;;;;;;13.35;3.10;;;6.70;59.10;;;;;;5106088;28;20050;-62
2022/02/03 07:06:21;;;;;;;42.67;5.15;;;6.70;59.10;;;;;;5113555;28;20103;-61
2022/02/03 07:08:48;;;;;;;17.38;3.70;;;6.60;59.20;;;;;;5114912;28;20111;-63
2022/02/03 07:11:18;;;;;;;19.10;3.15;;;6.60;59.30;;;;;;5096003;28;20134;-61
2022/02/03 07:13:44;;;;;;;14.80;3.25;;;6.60;59.30;;;;;;5083023;28;20028;-63
2022/02/03 07:16:10;;;;;;;12.10;3.13;;;6.70;59.30;;;;;;5113028;28;20024;-61
2022/02/03 07:18:36;;;;;;;11.15;2.70;;;6.70;59.10;;;;;;5113594;28;20486;-60
2022/02/03 07:21:02;;;;;;;18.33;2.35;;;6.80;58.90;;;;;;5113328;28;20417;-61
2022/02/03 07:23:27;;;;;;;20.00;4.05;;;6.80;58.70;;;;;;5085660;28;20472;-63
2022/02/03 07:25:53;;;;;;;18.63;2.92;;;6.80;58.60;;;;;;5106316;28;20146;-62
2022/02/03 07:28:19;;;;;;;10.68;2.83;;;6.80;58.60;;;;;;5106367;28;20027;-63
2022/02/03 07:30:45;;;;;;;9.80;3.30;;;6.90;58.50;;;;;;5089299;28;20031;-60
2022/02/03 07:33:12;;;;;;;19.90;3.40;;;6.90;58.60;;;;;;5092308;28;20477;-62
2022/02/03 07:35:38;;;;;;;18.13;3.53;;;7.00;58.60;;;;;;5111010;28;20034;-61
2022/02/03 07:38:06;;;;;;;36.50;4.78;;;7.00;58.40;;;;;;5095785;28;20024;-62
2022/02/03 07:40:32;;;;;;;18.63;4.95;;;7.00;58.20;;;;;;5112731;28;20398;-61
2022/02/03 07:42:59;;;;;;;27.25;5.75;;;7.40;60.00;;;;;;5109477;28;20134;-61
2022/02/03 07:45:25;;;;;;;53.78;9.05;;;10.20;57.10;;;;;;5109611;28;20092;-62
2022/02/03 07:47:54;;;;;;;27.23;6.45;;;13.20;50.90;;;;;;5107643;28;20028;-62
2022/02/03 07:50:21;;;;;;;30.30;6.32;;;15.40;46.40;;;;;;5112229;28;20031;-64
2022/02/03 07:52:47;;;;;;;14.55;5.32;;;17.30;42.20;;;;;;5087776;28;20080;-63
2022/02/03 07:55:14;;;;;;;19.13;5.68;;;18.80;39.50;;;;;;5089505;28;20464;-62
2022/02/03 07:57:48;;;;;;;13.35;5.93;;;20.10;36.10;;;;;;5105900;28;20024;-66
2022/02/03 08:00:15;;;;;;;13.18;6.00;;;21.00;34.40;;;;;;5107489;28;20057;-64
2022/02/03 08:02:42;;;;;;;15.18;6.10;;;21.50;32.90;;;;;;5107328;28;20037;-65
2022/02/03 08:05:27;;;;;;;22.77;7.10;;;22.10;32.10;;;;;;5108921;28;20074;-68
2022/02/03 08:08:11;;;;;;;52.95;7.30;;;22.60;30.70;;;;;;5104956;28;20024;-64
2022/02/03 08:13:05;;;;;;;18.70;5.15;;;20.70;30.50;;;;;;5105264;28;20125;-65
2022/02/03 08:15:33;;;;;;;11.30;3.10;;;18.70;32.40;;;;;;5106381;28;20088;-65
2022/02/03 08:18:04;;;;;;;13.60;3.40;;;17.30;34.50;;;;;;5101709;28;20100;-67
2022/02/03 08:20:30;;;;;;;12.32;2.90;;;16.10;35.90;;;;;;5112285;28;20027;-61
2022/02/03 08:23:57;;;;;;;13.82;3.50;;;15.10;36.70;;;;;;5103271;28;20039;-56
2022/02/03 08:25:50;;;;;;;12.05;3.75;;;14.30;38.20;;;;;;5097235;28;20549;-50
2022/02/03 08:30:59;;;;;;;15.07;3.03;;;13.00;40.60;;;;;;5108492;28;20609;-51
2022/02/03 08:33:25;;;;;;;15.57;3.88;;;12.40;41.50;;;;;;5103678;28;20039;-58
2022/02/03 08:35:51;;;;;;;16.00;4.50;;;12.00;42.60;;;;;;5113549;28;20367;-56
2022/02/03 08:38:22;;;;;;;10.15;2.85;;;11.80;43.20;;;;;;5113208;28;20051;-53
2022/02/03 08:43:15;;;;;;;11.57;3.30;;;11.40;44.00;;;;;;5094022;28;20019;-57
2022/02/03 08:45:42;;;;;;;17.75;3.65;;;11.20;44.40;;;;;;5106538;28;20054;-55
2022/02/03 08:48:08;;;;;;;13.95;3.03;;;10.90;45.30;;;;;;5105941;28;20024;-56
2022/02/03 08:50:35;;;;;;;13.48;3.63;;;10.70;45.70;;;;;;5107731;28;20019;-54
2022/02/03 08:53:13;;;;;;;15.52;3.63;;;10.50;45.90;;;;;;5102660;28;20042;-52
2022/02/03 09:41:33;;;;;;;15.65;3.17;;;10.10;47.90;;;;;;5103602;28;20409;-53
2022/02/03 09:58:00;;;;;;;;;;;10.40;46.40;;;;;;5103473;28;20084;-55
2022/02/03 10:00:26;;;;;;;13.05;3.10;;;10.40;45.60;;;;;;5103936;28;20002;-56
2022/02/03 10:02:59;;;;;;;14.00;3.35;;;10.40;45.70;;;;;;5099934;28;20039;-57
2022/02/03 10:05:37;;;;;;;10.85;2.40;;;10.40;45.40;;;;;;5103521;28;20032;-58
2022/02/03 10:08:04;;;;;;;11.73;2.67;;;10.60;45.10;;;;;;5099880;28;20174;-63
2022/02/03 10:10:31;;;;;;;12.77;2.90;;;10.60;45.20;;;;;;5102995;28;20461;-60
2022/02/03 10:12:57;;;;;;;15.80;4.13;;;10.70;45.20;;;;;;5107758;28;20039;-54
2022/02/03 10:15:23;;;;;;;9.88;2.92;;;10.80;45.10;;;;;;5105294;28;20102;-54
2022/02/03 10:17:50;;;;;;;15.80;3.17;;;10.80;44.90;;;;;;5086893;28;20441;-57
2022/02/03 10:20:20;;;;;;;16.20;3.53;;;10.80;45.10;;;;;;5107084;28;20024;-51
2022/02/03 10:22:53;;;;;;;9.18;3.03;;;10.90;45.10;;;;;;5104023;28;20086;-60
2022/02/03 10:25:22;;;;;;;9.90;2.83;;;10.90;45.10;;;;;;5102616;28;20464;-56
2022/02/03 10:28:00;;;;;;;18.75;3.60;;;11.10;44.50;;;;;;5097505;28;20032;-56
2022/02/03 10:30:35;;;;;;;18.90;3.42;;;11.30;44.40;;;;;;5082431;28;20436;-59
2022/02/03 10:33:01;;;;;;;10.75;2.63;;;11.30;43.60;;;;;;5094890;28;20074;-60
2022/02/03 10:35:39;;;;;;;10.77;3.10;;;11.40;43.20;;;;;;5099769;28;20068;-59
2022/02/03 10:39:26;;;;;;;10.18;2.78;;;11.60;43.30;;;;;;5100367;28;20075;-64
2022/02/03 10:49:26;;;;;;;11.63;3.15;;;11.60;42.60;;;;;;5105069;28;20022;-55
2022/02/03 10:54:04;;;;;;;7.78;2.55;;;11.70;41.80;;;;;;5100639;28;20489;-56
2022/02/03 11:02:08;;;;;;;8.55;2.50;;;11.90;41.30;;;;;;5102602;28;19934;-58
2022/02/03 11:10:25;;;;;;;8.15;2.03;;;12.30;40.40;;;;;;5052334;28;20073;-56
2022/02/03 11:12:52;;;;;;;6.53;2.00;;;12.30;40.30;;;;;;5101405;28;20028;-61
2022/02/03 11:15:19;;;;;;;16.58;3.38;;;12.20;39.70;;;;;;5102125;28;20149;-61
2022/02/03 11:17:48;;;;;;;7.95;2.70;;;12.10;40.20;;;;;;5083044;28;20038;-57
2022/02/03 11:20:17;;;;;;;8.98;2.28;;;12.20;40.80;;;;;;5099941;28;20020;-54
2022/02/03 11:22:54;;;;;;;16.35;3.22;;;12.30;40.30;;;;;;5101394;28;20112;-56
2022/02/03 11:58:16;;;;;;;7.30;2.17;;;12.90;38.10;;;;;;5102360;28;20055;-55
2022/02/03 12:04:34;;;;;;;22.63;3.42;;;13.20;38.00;;;;;;5098538;28;20375;-56
2022/02/03 12:17:56;;;;;;;9.43;2.30;;;13.40;37.20;;;;;;5097713;28;20020;-63
2022/02/03 12:21:01;;;;;;;6.43;2.15;;;13.50;37.50;;;;;;5086240;28;20107;-57
2022/02/03 12:23:59;;;;;;;3.72;1.60;;;13.50;36.40;;;;;;5104152;28;20048;-56
2022/02/03 12:26:39;;;;;;;8.30;2.05;;;13.40;36.80;;;;;;5102012;28;20112;-54
2022/02/03 12:29:21;;;;;;;5.53;1.77;;;13.40;37.00;;;;;;5073544;28;20051;-59
2022/02/03 12:32:20;;;;;;;18.35;9.55;;;13.40;36.70;;;;;;5096016;28;20023;-50
2022/02/03 12:38:22;;;;;;;11.82;2.33;;;13.20;37.50;;;;;;5099705;28;20062;-56
2022/02/03 12:42:52;;;;;;;7.30;1.88;;;13.10;37.50;;;;;;5101363;28;20163;-56
2022/02/03 12:45:24;;;;;;;12.20;2.85;;;13.20;38.00;;;;;;5106884;28;20461;-56
2022/02/03 12:48:01;;;;;;;8.32;2.38;;;13.30;38.00;;;;;;5096948;28;20062;-54
2022/02/03 12:50:29;;;;;;;8.90;1.92;;;13.30;37.60;;;;;;5090356;28;20027;-54
2022/02/03 12:52:58;;;;;;;7.90;1.80;;;13.30;37.70;;;;;;5085508;28;20369;-56
2022/02/03 12:55:36;;;;;;;7.32;2.38;;;13.30;38.10;;;;;;5104214;28;20024;-56
2022/02/03 12:58:25;;;;;;;12.82;2.17;;;13.30;38.00;;;;;;5100392;28;20034;-56
2022/02/03 13:01:31;;;;;;;8.85;2.30;;;13.30;37.60;;;;;;5110413;28;20027;-58
2022/02/03 13:03:50;;;;;;;9.13;2.05;;;13.30;37.80;;;;;;5096697;28;20138;-56
2022/02/03 13:06:20;;;;;;;6.57;2.38;;;13.40;37.60;;;;;;5102213;28;20034;-56
2022/02/03 13:08:57;;;;;;;8.95;2.67;;;13.30;37.90;;;;;;5090456;28;20123;-61
2022/02/03 13:14:27;;;;;;;20.27;7.13;;;13.40;38.60;;;;;;5099760;28;20078;-57
2022/02/03 13:17:10;;;;;;;12.65;2.85;;;13.30;39.80;;;;;;5103196;28;20023;-59
2022/02/03 13:19:54;;;;;;;14.00;2.97;;;13.30;39.50;;;;;;5104577;28;20107;-59
2022/02/03 13:22:35;;;;;;;9.85;2.55;;;13.40;39.60;;;;;;5103685;28;20057;-56
2022/02/03 13:27:54;;;;;;;12.65;3.03;;;13.40;39.90;;;;;;5092327;28;20035;-59
2022/02/03 13:30:33;;;;;;;13.00;3.38;;;13.40;40.00;;;;;;5095443;28;20027;-54
2022/02/03 13:33:03;;;;;;;13.48;4.53;;;13.30;40.30;;;;;;5098477;28;20139;-62
2022/02/03 13:35:43;;;;;;;15.20;3.63;;;13.30;40.60;;;;;;5105040;28;20089;-59
2022/02/03 13:38:21;;;;;;;17.75;3.97;;;13.30;40.90;;;;;;5080204;28;20030;-58
2022/02/03 13:40:48;;;;;;;20.67;4.43;;;13.40;41.00;;;;;;5088414;28;20023;-61
2022/02/03 13:43:14;;;;;;;20.25;5.97;;;13.40;41.10;;;;;;5102061;28;20031;-56
2022/02/03 13:45:41;;;;;;;16.58;4.50;;;13.50;41.20;;;;;;5094152;28;20035;-51
2022/02/03 13:48:21;;;;;;;10.48;2.92;;;13.40;41.10;;;;;;5073381;28;20472;-55
2022/02/03 13:50:57;;;;;;;12.93;3.33;;;13.30;41.20;;;;;;5097251;28;20028;-55
2022/02/03 13:53:36;;;;;;;13.32;3.42;;;13.10;41.60;;;;;;5097659;28;20043;-55
2022/02/03 14:16:17;;;;;;;11.90;3.55;;;12.80;42.80;;;;;;5107347;28;20031;-50
2022/02/03 14:29:19;;;;;;;20.50;4.43;;;12.90;43.50;;;;;;5102846;28;20076;-53
2022/02/03 14:31:50;;;;;;;13.63;4.35;;;12.90;43.60;;;;;;5092275;28;20043;-56
2022/02/03 14:34:23;;;;;;;17.23;4.05;;;12.90;43.80;;;;;;5099179;28;20020;-53
2022/02/03 14:36:59;;;;;;;13.30;4.15;;;12.90;43.90;;;;;;5093966;28;20023;-54
2022/02/03 14:39:38;;;;;;;9.60;3.05;;;12.80;44.10;;;;;;5098712;28;20024;-55
2022/02/03 14:42:07;;;;;;;9.85;3.13;;;12.70;44.50;;;;;;5096492;28;20484;-56
2022/02/03 14:44:33;;;;;;;11.38;3.20;;;12.60;44.70;;;;;;5080972;28;20326;-52
2022/02/03 14:46:59;;;;;;;14.80;3.88;;;12.60;44.90;;;;;;5100786;28;20028;-59
2022/02/03 14:49:24;;;;;;;13.93;3.30;;;12.60;45.10;;;;;;5097227;28;20020;-55
2022/02/03 14:52:08;;;;;;;10.90;3.67;;;12.50;45.00;;;;;;5107743;28;20032;-56
2022/02/03 14:59:43;;;;;;;;;;;12.50;45.30;;;;;;5102327;28;20119;-56
2022/02/03 15:02:09;;;;;;;16.20;4.82;;;12.60;45.20;;;;;;5101041;28;20018;-59
2022/02/03 15:04:41;;;;;;;10.40;3.28;;;12.60;45.20;;;;;;5102904;28;20154;-57
2022/02/03 15:07:09;;;;;;;13.57;3.85;;;12.50;45.10;;;;;;5099986;28;20118;-55
2022/02/03 15:14:59;;;;;;;;;;;12.40;45.60;;;;;;5105353;28;20038;-55
2022/02/03 15:17:26;;;;;;;14.50;4.15;;;12.40;45.80;;;;;;5103628;28;20378;-53
2022/02/03 15:19:52;;;;;;;11.98;2.95;;;12.30;45.80;;;;;;5108348;27;20027;-60
2022/02/03 15:22:17;;;;;;;11.30;2.90;;;12.20;44.70;;;;;;5103632;28;20063;-54
2022/02/03 15:24:43;;;;;;;9.50;2.85;;;12.10;44.30;;;;;;5106728;28;20035;-57
2022/02/03 15:27:10;;;;;;;11.85;2.63;;;11.90;43.90;;;;;;5107446;28;20110;-58
2022/02/03 15:29:36;;;;;;;11.73;2.47;;;11.80;43.80;;;;;;5111854;27;20035;-60
2022/02/03 15:32:02;;;;;;;11.80;3.70;;;11.70;43.60;;;;;;5111727;28;20040;-55
2022/02/03 15:34:28;;;;;;;14.90;3.22;;;11.70;44.00;;;;;;5087333;28;20032;-54
2022/02/03 15:37:01;;;;;;;13.55;2.88;;;11.60;43.50;;;;;;5093227;28;20062;-53
2022/02/03 15:39:34;;;;;;;10.13;2.30;;;11.60;43.50;;;;;;5104643;28;20107;-57
2022/02/03 15:42:00;;;;;;;8.75;2.83;;;11.50;43.40;;;;;;5100470;28;20423;-48
2022/02/03 15:44:26;;;;;;;14.38;2.83;;;11.40;43.70;;;;;;5082150;28;20020;-55
2022/02/03 15:47:03;;;;;;;7.65;2.97;;;11.40;44.00;;;;;;5102165;28;20038;-51
2022/02/03 16:00:49;;;;;;;7.85;3.60;;;11.10;44.50;;;;;;5111140;28;20089;-53
2022/02/03 16:18:33;;;;;;;17.58;4.88;;;10.90;45.30;;;;;;5105041;28;20051;-54
2022/02/03 16:21:15;;;;;;;12.50;5.28;;;10.90;45.60;;;;;;5086007;28;20073;-56
2022/02/03 16:53:09;;;;;;;22.02;7.50;;;10.60;47.20;;;;;;5108187;28;20084;-58
2022/02/03 16:55:38;;;;;;;26.58;11.15;;;10.60;47.30;;;;;;5092048;28;20040;-55
2022/02/03 16:58:07;;;;;;;20.40;7.80;;;10.50;47.30;;;;;;5110672;28;20456;-55
2022/02/03 17:00:33;;;;;;;16.85;5.97;;;10.50;47.30;;;;;;5110247;28;20036;-57
2022/02/03 17:03:00;;;;;;;13.70;4.63;;;10.60;47.40;;;;;;5108623;28;20027;-59
2022/02/03 17:05:26;;;;;;;15.93;4.95;;;10.60;47.30;;;;;;5110153;28;20035;-56
2022/02/03 17:08:10;;;;;;;13.77;4.40;;;10.60;47.30;;;;;;5091942;28;20105;-55
2022/02/03 17:10:36;;;;;;;21.80;6.30;;;10.60;47.30;;;;;;5103139;28;20360;-58
2022/02/03 17:13:02;;;;;;;22.45;8.82;;;10.60;47.30;;;;;;5091530;28;20130;-58
2022/02/03 17:15:28;;;;;;;9.45;4.95;;;10.60;47.40;;;;;;5106092;28;20055;-59
2022/02/03 17:17:54;;;;;;;13.38;4.60;;;10.60;47.50;;;;;;5100310;28;20027;-57
2022/02/03 17:20:30;;;;;;;13.20;5.40;;;10.60;47.50;;;;;;5083312;28;20031;-51
2022/02/03 17:22:57;;;;;;;13.25;3.90;;;10.50;47.60;;;;;;5101200;28;20044;-57
2022/02/03 17:25:45;;;;;;;13.65;4.03;;;10.50;47.70;;;;;;5093289;28;20530;-55
2022/02/03 17:30:58;;;;;;;13.10;5.25;;;10.50;47.70;;;;;;5094793;28;20058;-51
2022/02/03 17:53:08;;;;;;;16.50;5.78;;;10.20;48.40;;;;;;5099121;28;20062;-64
2022/02/03 18:35:50;;;;;;;12.73;6.40;;;10.10;49.80;;;;;;5103455;28;20024;-54
2022/02/03 18:57:09;;;;;;;8.32;4.35;;;9.90;50.70;;;;;;5114867;28;20023;-54
2022/02/03 19:11:03;;;;;;;11.55;4.78;;;9.70;51.60;;;;;;5113115;28;20369;-53
2022/02/03 19:16:02;;;;;;;14.73;5.47;;;9.70;51.60;;;;;;5108062;28;20032;-55
2022/02/03 19:26:33;;;;;;;9.80;5.05;;;9.60;52.10;;;;;;5109240;28;20030;-54
2022/02/03 20:11:35;;;;;;;17.30;8.23;;;9.50;52.70;;;;;;5107442;28;20046;-53
2022/02/03 20:14:01;;;;;;;12.40;6.38;;;9.50;52.80;;;;;;5113837;28;20081;-54
2022/02/03 20:16:27;;;;;;;13.73;6.75;;;9.50;52.80;;;;;;5108155;28;20387;-52
2022/02/03 20:18:53;;;;;;;11.95;5.45;;;9.60;52.80;;;;;;5095686;28;20118;-54
2022/02/03 20:21:20;;;;;;;13.30;5.53;;;9.50;52.80;;;;;;5104529;28;20111;-52
2022/02/03 20:23:46;;;;;;;13.57;5.90;;;9.50;53.00;;;;;;5102958;28;20127;-53
2022/02/03 20:26:17;;;;;;;9.98;4.95;;;9.40;53.10;;;;;;5108859;28;20031;-52
2022/02/03 20:28:45;;;;;;;15.20;5.50;;;9.50;53.00;;;;;;5109727;28;20034;-59
2022/02/03 20:31:11;;;;;;;12.63;6.22;;;9.50;53.00;;;;;;5090198;28;20050;-52
2022/02/03 20:33:37;;;;;;;11.68;5.57;;;9.50;53.00;;;;;;5090927;28;20088;-53
2022/02/03 20:36:05;;;;;;;10.43;4.50;;;9.50;53.00;;;;;;5111889;28;20022;-52
2022/02/03 20:38:31;;;;;;;11.65;5.05;;;9.50;53.20;;;;;;5107461;28;20028;-51
2022/02/03 20:40:57;;;;;;;7.88;4.57;;;9.40;53.30;;;;;;5113059;28;20073;-54
2022/02/03 20:43:24;;;;;;;9.70;4.63;;;9.40;53.50;;;;;;5112789;28;20036;-51
2022/02/03 20:45:51;;;;;;;11.57;4.88;;;9.30;53.60;;;;;;5107116;28;20028;-57
2022/02/03 20:48:17;;;;;;;12.35;4.68;;;9.30;53.70;;;;;;5100118;28;20028;-60
2022/02/03 20:50:46;;;;;;;11.00;4.60;;;9.30;53.80;;;;;;5101379;28;20031;-55
2022/02/03 20:53:15;;;;;;;12.13;5.20;;;9.30;53.90;;;;;;5097525;28;20426;-52
2022/02/03 20:55:44;;;;;;;9.45;4.80;;;9.20;54.10;;;;;;5083040;28;20478;-52
2022/02/03 20:58:14;;;;;;;8.48;4.60;;;9.20;54.20;;;;;;5104016;28;20456;-53
2022/02/03 21:00:48;;;;;;;11.15;5.75;;;9.20;54.20;;;;;;5105713;28;20456;-54
2022/02/03 21:05:43;;;;;;;13.77;5.95;;;9.20;54.30;;;;;;5101201;28;20024;-50
2022/02/03 21:08:10;;;;;;;12.60;5.60;;;9.30;54.30;;;;;;5102356;28;20024;-54
2022/02/03 21:10:36;;;;;;;13.25;5.85;;;9.30;54.10;;;;;;5086818;28;20394;-56
2022/02/03 21:13:01;;;;;;;14.40;5.22;;;9.30;54.10;;;;;;5104329;28;20110;-50
2022/02/03 21:15:35;;;;;;;11.18;5.60;;;9.30;54.30;;;;;;5111810;28;20441;-52
2022/02/03 21:18:05;;;;;;;12.40;5.30;;;9.30;54.30;;;;;;5099818;28;20707;-48
2022/02/03 21:20:31;;;;;;;10.77;5.38;;;9.30;54.20;;;;;;5100938;28;20361;-54
2022/02/03 21:22:57;;;;;;;9.70;4.53;;;9.30;54.30;;;;;;5099870;28;20043;-53
2022/02/03 21:28:21;;;;;;;11.65;5.43;;;9.30;54.30;;;;;;5096036;28;20130;-57
2022/02/03 21:30:48;;;;;;;16.75;5.03;;;9.30;54.40;;;;;;5104989;28;20039;-54
2022/02/03 21:33:21;;;;;;;10.48;4.78;;;9.30;54.50;;;;;;5100543;28;20028;-54
2022/02/03 21:35:48;;;;;;;10.90;5.38;;;9.30;54.50;;;;;;5105429;28;20028;-55
2022/02/03 21:38:15;;;;;;;12.20;5.22;;;9.30;54.60;;;;;;5102233;28;20051;-51
2022/02/03 21:40:40;;;;;;;16.20;5.82;;;9.20;54.60;;;;;;5100999;28;20059;-51
2022/02/03 21:43:06;;;;;;;11.73;5.80;;;9.20;54.80;;;;;;5106321;28;20078;-50
2022/02/03 21:45:34;;;;;;;13.05;5.32;;;9.20;54.80;;;;;;5084672;28;20047;-56
2022/02/03 21:48:01;;;;;;;12.68;5.38;;;9.10;54.80;;;;;;5103865;28;20061;-47
2022/02/03 21:50:34;;;;;;;11.63;5.40;;;9.00;55.00;;;;;;5101519;28;20020;-54
2022/02/03 21:53:02;;;;;;;13.93;6.00;;;9.00;55.10;;;;;;5104010;28;20596;-53
2022/02/03 21:55:32;;;;;;;10.95;5.10;;;9.00;55.50;;;;;;5085799;28;20038;-54
2022/02/03 21:57:57;;;;;;;15.00;6.47;;;9.00;55.60;;;;;;5101350;28;20027;-50
2022/02/03 22:00:23;;;;;;;14.05;6.43;;;9.00;55.60;;;;;;5103345;28;20027;-52
2022/02/03 22:02:49;;;;;;;15.68;6.63;;;9.00;55.70;;;;;;5102937;28;20093;-52
2022/02/03 22:05:15;;;;;;;15.50;6.65;;;9.00;55.70;;;;;;5102173;28;20032;-52
2022/02/03 22:07:45;;;;;;;13.05;6.50;;;8.90;55.80;;;;;;5103992;28;20050;-51
2022/02/03 22:10:17;;;;;;;16.45;6.00;;;8.90;56.00;;;;;;5106601;28;20032;-58
2022/02/03 22:12:43;;;;;;;11.02;5.55;;;8.90;56.10;;;;;;5101118;28;20036;-55
2022/02/03 22:15:09;;;;;;;12.77;6.78;;;8.80;56.00;;;;;;5102040;28;20128;-58
2022/02/03 22:17:36;;;;;;;12.25;6.20;;;8.90;56.10;;;;;;5099002;28;20504;-57
2022/02/03 22:20:07;;;;;;;16.13;6.82;;;8.80;56.10;;;;;;5098576;28;20476;-59
2022/02/03 22:22:49;;;;;;;14.23;7.22;;;8.90;56.10;;;;;;5102458;28;20043;-54
2022/02/03 22:38:58;;;;;;;12.77;7.38;;;8.70;56.50;;;;;;5100012;28;20149;-51
2022/02/03 22:44:22;;;;;;;16.70;8.55;;;8.70;56.30;;;;;;5100178;28;20111;-57
2022/02/03 22:49:39;;;;;;;17.42;8.23;;;8.70;56.20;;;;;;5069407;28;20350;-54
2022/02/03 22:52:06;;;;;;;16.67;8.27;;;8.70;56.10;;;;;;5083171;28;20076;-54
2022/02/03 22:54:32;;;;;;;14.25;7.32;;;8.70;56.20;;;;;;5080561;28;20495;-52
2022/02/03 22:56:59;;;;;;;14.00;7.75;;;8.60;56.20;;;;;;5085169;28;20011;-56
2022/02/03 23:02:11;;;;;;;12.82;6.70;;;8.70;56.40;;;;;;5097332;28;20122;-52
2022/02/03 23:04:38;;;;;;;10.80;5.45;;;8.70;56.40;;;;;;5083955;28;20028;-58
2022/02/03 23:07:16;;;;;;;12.80;5.80;;;8.60;56.20;;;;;;5102004;28;20023;-56
2022/02/03 23:10:13;;;;;;;11.52;5.78;;;8.70;56.20;;;;;;5106114;28;20050;-54
2022/02/03 23:13:35;;;;;;;10.93;5.35;;;8.60;56.00;;;;;;5099912;28;20373;-48
2022/02/03 23:15:46;;;;;;;9.32;5.00;;;8.70;56.10;;;;;;5098105;28;20318;-55
2022/02/03 23:18:30;;;;;;;12.95;5.68;;;8.60;55.90;;;;;;5080695;28;20778;-53
2022/02/03 23:23:48;;;;;;;15.82;7.50;;;8.60;56.00;;;;;;5074252;28;20051;-55
2022/02/03 23:26:15;;;;;;;12.25;6.03;;;8.60;56.10;;;;;;5102982;28;20381;-53
2022/02/03 23:28:41;;;;;;;13.15;6.13;;;8.60;56.20;;;;;;5083624;28;20040;-56
2022/02/03 23:31:07;;;;;;;11.10;6.20;;;8.60;56.20;;;;;;5101761;28;20545;-59
2022/02/03 23:33:33;;;;;;;11.00;6.00;;;8.60;56.10;;;;;;5100528;28;20094;-53
2022/02/03 23:36:00;;;;;;;13.02;6.32;;;8.60;56.30;;;;;;5101845;28;20099;-54
2022/02/03 23:38:48;;;;;;;10.23;5.38;;;8.60;56.20;;;;;;5085180;28;20028;-53
2022/02/03 23:44:44;;;;;;;14.43;6.57;;;8.70;56.10;;;;;;5105593;28;20072;-54
